Terminal Aerodrome Forecast
Issued by NWS Charleston, WV

Current Version | Previous Version | Text Only | Print | Product List | Glossary Off
Versions: 1 2 3 4 5 6 7 8 9 10 11 12 13 14 15 16 17 18 19 20 21 22 23 24 25

895
FTUS41 KRLX 171725
TAFHTS
TAF
KHTS 171725Z 1718/1818 30003KT P6SM BKN018
      TEMPO 1718/1720 4SM -SN
     FM172000 29004KT P6SM SCT025
     FM180100 28005KT P6SM BKN100
     FM180700 24005KT P6SM SCT150=

USA.gov is the U.S. government's official web portal to all federal, state and local government web resources and services.